createdAt,value
2022-10-14T00:02:24.654Z,8.15
2022-10-14T00:04:50.867Z,7.78
2022-10-14T00:07:17.161Z,8.52
2022-10-14T00:09:43.587Z,8.13
2022-10-14T00:12:09.834Z,8.63
2022-10-14T00:14:36.095Z,8.25
2022-10-14T00:17:02.338Z,8.05
2022-10-14T00:19:28.589Z,7.88
2022-10-14T00:21:54.810Z,8.48
2022-10-14T00:24:21.074Z,8.15
2022-10-14T00:26:47.310Z,9.80
2022-10-14T00:29:15.134Z,7.75
2022-10-14T00:31:41.385Z,8.15
2022-10-14T00:34:07.628Z,8.50
2022-10-14T00:36:33.875Z,8.05
2022-10-14T00:39:00.096Z,8.77
2022-10-14T00:41:27.819Z,7.15
2022-10-14T00:43:59.258Z,7.50
2022-10-14T00:46:26.641Z,7.15
2022-10-14T00:48:53.410Z,7.60
2022-10-14T00:51:20.051Z,7.70
2022-10-14T00:53:46.427Z,7.63
2022-10-14T00:56:14.145Z,8.15
2022-10-14T00:58:40.569Z,7.10
2022-10-14T01:01:07.958Z,7.28
2022-10-14T01:03:34.284Z,7.55
2022-10-14T01:06:06.660Z,7.47
2022-10-14T01:08:37.391Z,8.35
2022-10-14T01:11:13.317Z,8.30
2022-10-14T01:13:54.624Z,7.63
2022-10-14T01:16:22.820Z,7.40
2022-10-14T01:18:58.553Z,7.70
2022-10-14T01:21:30.980Z,8.20
2022-10-14T01:24:05.157Z,7.50
2022-10-14T01:26:43.175Z,8.27
2022-10-14T01:29:40.316Z,8.40
2022-10-14T01:32:10.243Z,7.45
2022-10-14T01:34:39.597Z,8.00
2022-10-14T01:37:09.961Z,7.63
2022-10-14T01:39:39.065Z,8.68
2022-10-14T01:42:10.043Z,8.20
2022-10-14T01:44:38.903Z,7.50
2022-10-14T01:47:06.410Z,8.27
2022-10-14T01:49:35.328Z,9.07
2022-10-14T01:52:05.429Z,8.80
2022-10-14T01:54:34.887Z,9.38
2022-10-14T01:57:03.721Z,8.75
2022-10-14T01:59:30.999Z,9.80
2022-10-14T02:01:57.298Z,8.75
2022-10-14T02:04:23.713Z,9.23
2022-10-14T02:07:10.298Z,9.45
2022-10-14T02:10:02.905Z,9.45
2022-10-14T02:12:47.928Z,9.95
2022-10-14T02:15:32.490Z,9.88
2022-10-14T02:18:04.457Z,9.18
2022-10-14T02:20:37.359Z,10.50
2022-10-14T02:23:23.890Z,9.18
2022-10-14T02:25:50.853Z,10.25
2022-10-14T02:30:46.848Z,9.85
2022-10-14T02:33:14.227Z,9.00
2022-10-14T02:35:41.282Z,10.57
2022-10-14T02:40:37.006Z,10.00
2022-10-14T02:43:03.406Z,10.45
2022-10-14T02:45:29.644Z,10.30
2022-10-14T02:47:56.087Z,10.13
2022-10-14T02:50:22.359Z,10.18
2022-10-14T02:52:48.627Z,10.43
2022-10-14T02:55:14.928Z,11.35
2022-10-14T02:57:41.986Z,10.85
2022-10-14T03:00:08.521Z,10.88
2022-10-14T03:02:34.757Z,10.90
2022-10-14T03:05:00.975Z,9.75
2022-10-14T03:07:27.217Z,10.00
2022-10-14T03:09:53.470Z,10.20
2022-10-14T03:12:20.079Z,10.77
2022-10-14T03:14:46.557Z,10.75
2022-10-14T03:17:12.828Z,9.82
2022-10-14T03:19:40.881Z,9.15
2022-10-14T03:22:07.199Z,10.73
2022-10-14T03:24:33.436Z,9.63
2022-10-14T03:26:59.691Z,15.55
2022-10-14T03:29:25.916Z,10.77
2022-10-14T03:31:52.188Z,10.65
2022-10-14T03:34:18.457Z,10.85
2022-10-14T03:36:44.702Z,10.57
2022-10-14T03:39:11.529Z,11.50
2022-10-14T03:41:38.227Z,12.27
2022-10-14T03:44:04.651Z,11.73
2022-10-14T03:46:31.364Z,11.43
2022-10-14T03:48:57.621Z,11.73
2022-10-14T03:51:24.032Z,11.82
2022-10-14T03:53:50.291Z,12.07
2022-10-14T03:56:16.577Z,12.57
2022-10-14T03:58:42.854Z,12.02
2022-10-14T04:01:09.099Z,13.27
2022-10-14T04:03:35.360Z,13.15
2022-10-14T04:06:01.653Z,13.63
2022-10-14T04:08:27.985Z,12.90
2022-10-14T04:10:54.352Z,12.77
2022-10-14T04:13:20.985Z,13.05
2022-10-14T04:15:47.271Z,14.63
2022-10-14T04:18:13.537Z,14.95
2022-10-14T04:20:39.811Z,14.07
2022-10-14T04:23:06.048Z,13.68
2022-10-14T04:25:32.308Z,12.88
2022-10-14T04:27:58.529Z,13.60
2022-10-14T04:30:24.827Z,16.67
2022-10-14T04:32:51.221Z,14.73
2022-10-14T04:35:17.475Z,13.50
2022-10-14T04:37:43.711Z,12.25
2022-10-14T04:40:10.301Z,13.43
2022-10-14T04:42:36.547Z,14.45
2022-10-14T04:45:03.244Z,15.82
2022-10-14T04:47:29.461Z,14.70
2022-10-14T04:49:55.699Z,15.73
2022-10-14T04:52:22.237Z,13.73
2022-10-14T04:54:48.741Z,15.00
2022-10-14T04:57:15.362Z,13.68
2022-10-14T04:59:41.649Z,13.82
2022-10-14T05:02:07.945Z,14.25
2022-10-14T05:04:34.251Z,15.05
2022-10-14T05:07:00.489Z,14.65
2022-10-14T05:09:26.832Z,12.82
2022-10-14T05:11:53.096Z,14.07
2022-10-14T05:14:19.421Z,13.77
2022-10-14T05:16:45.677Z,12.55
2022-10-14T05:19:11.946Z,12.77
2022-10-14T05:21:38.233Z,13.27
2022-10-14T05:24:04.609Z,14.05
2022-10-14T05:26:31.620Z,13.18
2022-10-14T05:31:24.133Z,14.10
2022-10-14T05:33:50.377Z,15.13
2022-10-14T05:36:16.710Z,14.52
2022-10-14T05:38:43.093Z,13.85
2022-10-14T05:41:09.367Z,17.23
2022-10-14T05:43:35.598Z,14.40
2022-10-14T05:46:01.864Z,13.23
2022-10-14T05:48:28.166Z,14.30
2022-10-14T05:50:54.464Z,15.45
2022-10-14T05:53:20.715Z,15.85
2022-10-14T05:55:47.079Z,15.82
2022-10-14T05:58:13.331Z,15.13
2022-10-14T06:00:39.634Z,17.70
2022-10-14T06:03:05.938Z,18.58
2022-10-14T06:05:35.026Z,18.35
2022-10-14T06:08:01.266Z,16.58
2022-10-14T06:10:27.563Z,16.45
2022-10-14T06:12:53.843Z,14.75
2022-10-14T06:15:20.173Z,15.30
2022-10-14T06:17:46.424Z,15.43
2022-10-14T06:20:12.715Z,13.23
2022-10-14T06:22:39.010Z,14.75
2022-10-14T06:25:05.520Z,12.93
2022-10-14T06:27:31.801Z,11.95
2022-10-14T06:29:58.044Z,11.05
2022-10-14T06:32:24.643Z,12.27
2022-10-14T06:34:51.088Z,12.32
2022-10-14T06:37:17.311Z,11.60
2022-10-14T06:39:44.980Z,11.32
2022-10-14T06:42:13.189Z,11.43
2022-10-14T06:44:39.711Z,10.70
2022-10-14T06:47:06.675Z,10.98
2022-10-14T06:51:59.104Z,9.30
2022-10-14T06:54:25.418Z,10.25
2022-10-14T06:56:51.696Z,8.73
2022-10-14T06:59:17.923Z,8.40
2022-10-14T07:01:44.235Z,8.60
2022-10-14T07:04:10.484Z,9.15
2022-10-14T07:06:37.378Z,10.02
2022-10-14T07:09:03.921Z,9.18
2022-10-14T07:11:30.187Z,8.10
2022-10-14T07:13:56.976Z,8.98
2022-10-14T07:16:23.593Z,8.15
2022-10-14T07:18:49.823Z,8.93
2022-10-14T07:21:16.072Z,8.32
2022-10-14T07:23:42.316Z,8.57
2022-10-14T07:26:08.585Z,9.18
2022-10-14T07:28:34.911Z,8.70
2022-10-14T07:31:03.242Z,9.13
2022-10-14T07:33:29.836Z,8.18
2022-10-14T07:35:56.248Z,8.18
2022-10-14T07:38:22.506Z,7.68
2022-10-14T07:40:56.581Z,7.20
2022-10-14T07:43:22.889Z,7.35
2022-10-14T07:45:50.903Z,9.00
2022-10-14T07:48:27.148Z,7.88
2022-10-14T07:51:03.506Z,7.40
2022-10-14T07:53:29.770Z,7.90
2022-10-14T07:55:59.062Z,7.47
2022-10-14T07:58:27.333Z,7.82
2022-10-14T08:00:53.967Z,8.13
2022-10-14T08:03:20.749Z,6.93
2022-10-14T08:05:47.569Z,8.10
2022-10-14T08:08:14.158Z,7.68
2022-10-14T08:10:41.601Z,7.28
2022-10-14T08:13:08.058Z,8.23
2022-10-14T08:15:35.428Z,6.80
2022-10-14T08:18:01.698Z,7.70
2022-10-14T08:20:28.019Z,7.25
2022-10-14T08:22:54.441Z,8.93
2022-10-14T08:25:20.689Z,8.45
2022-10-14T08:27:48.968Z,8.45
2022-10-14T08:30:15.302Z,9.45
2022-10-14T08:32:41.568Z,8.73
2022-10-14T08:35:08.153Z,7.72
2022-10-14T08:37:34.569Z,8.57
2022-10-14T08:40:00.819Z,7.72
2022-10-14T08:42:35.991Z,7.40
2022-10-14T08:45:10.070Z,7.20
2022-10-14T08:47:37.843Z,7.32
2022-10-14T08:50:04.341Z,7.40
2022-10-14T08:52:41.870Z,7.20
2022-10-14T08:57:38.373Z,7.90
2022-10-14T09:00:04.848Z,6.20
2022-10-14T09:02:31.085Z,6.45
2022-10-14T09:04:58.855Z,6.22
2022-10-14T09:07:25.361Z,6.13
2022-10-14T09:09:53.238Z,5.78
2022-10-14T09:12:28.051Z,6.60
2022-10-14T09:15:03.463Z,5.70
2022-10-14T09:17:37.057Z,6.18
2022-10-14T09:20:14.757Z,6.63
2022-10-14T09:22:41.960Z,8.00
2022-10-14T09:25:17.505Z,5.82
2022-10-14T09:27:43.868Z,6.15
2022-10-14T09:30:14.523Z,5.85
2022-10-14T09:32:44.005Z,9.35
2022-10-14T09:35:33.675Z,5.70
2022-10-14T09:37:59.929Z,7.15
2022-10-14T09:40:34.097Z,7.03
2022-10-14T09:43:09.570Z,7.10
2022-10-14T09:45:56.086Z,11.90
2022-10-14T09:48:33.243Z,8.30
2022-10-14T09:51:01.293Z,9.05
2022-10-14T09:53:29.212Z,6.93
2022-10-14T09:55:57.044Z,10.93
2022-10-14T09:58:28.953Z,17.50
2022-10-14T10:00:59.799Z,7.65
2022-10-14T10:03:28.104Z,6.55
2022-10-14T10:06:03.627Z,6.80
2022-10-14T10:08:29.867Z,8.77
2022-10-14T10:11:06.661Z,7.25
2022-10-14T10:13:41.399Z,7.32
2022-10-14T10:16:17.006Z,6.88
2022-10-14T10:18:43.310Z,6.97
2022-10-14T10:21:17.780Z,6.57
2022-10-14T10:23:54.879Z,7.03
2022-10-14T10:26:25.917Z,6.63
2022-10-14T10:28:53.916Z,5.22
2022-10-14T10:31:29.447Z,6.40
2022-10-14T10:34:06.776Z,6.93
2022-10-14T10:36:39.338Z,5.80
2022-10-14T10:39:14.739Z,5.70
2022-10-14T10:42:01.212Z,5.55
2022-10-14T10:44:35.031Z,5.93
2022-10-14T10:47:14.904Z,7.68
2022-10-14T10:49:53.116Z,6.35
2022-10-14T10:52:21.470Z,8.32
2022-10-14T10:54:58.227Z,11.13
2022-10-14T10:57:36.376Z,11.15
2022-10-14T11:00:06.100Z,6.68
2022-10-14T11:02:35.153Z,5.80
2022-10-14T11:05:37.024Z,6.53
2022-10-14T11:08:28.585Z,6.28
2022-10-14T11:11:16.361Z,5.75
2022-10-14T11:13:50.203Z,6.03
2022-10-14T11:16:27.077Z,5.78
2022-10-14T11:19:01.067Z,6.35
2022-10-14T11:21:45.848Z,5.50
2022-10-14T11:26:46.489Z,5.32
2022-10-14T11:29:37.565Z,4.68
2022-10-14T11:32:10.285Z,4.32
2022-10-14T11:34:39.532Z,3.85
2022-10-14T11:37:15.405Z,3.53
2022-10-14T11:39:48.663Z,3.78
2022-10-14T11:42:33.849Z,3.47
2022-10-14T11:45:08.235Z,3.38
2022-10-14T11:47:36.492Z,4.50
2022-10-14T11:50:21.501Z,3.90
2022-10-14T11:53:17.171Z,3.50
2022-10-14T11:55:45.969Z,2.72
2022-10-14T11:58:20.259Z,3.60
2022-10-14T12:01:03.850Z,16.15
2022-10-14T12:03:45.432Z,11.65
2022-10-14T12:06:18.049Z,3.65
2022-10-14T12:08:50.839Z,3.75
2022-10-14T12:11:17.057Z,3.42
2022-10-14T12:13:47.449Z,3.38
2022-10-14T12:16:16.210Z,3.22
2022-10-14T12:18:44.353Z,3.55
2022-10-14T12:21:14.040Z,3.50
2022-10-14T12:23:45.872Z,4.65
2022-10-14T12:26:24.455Z,4.22
2022-10-14T12:28:52.873Z,4.15
2022-10-14T12:31:23.143Z,3.83
2022-10-14T12:34:08.186Z,3.97
2022-10-14T12:39:17.625Z,3.47
2022-10-14T12:41:56.093Z,3.55
2022-10-14T12:44:23.515Z,3.38
2022-10-14T12:46:51.502Z,3.58
2022-10-14T12:49:31.227Z,3.60
2022-10-14T12:51:58.942Z,3.42
2022-10-14T12:54:25.809Z,3.13
2022-10-14T12:57:20.804Z,7.13
2022-10-14T12:59:50.821Z,4.03
2022-10-14T13:02:35.023Z,3.33
2022-10-14T13:05:04.639Z,4.18
2022-10-14T13:07:47.169Z,3.90
2022-10-14T13:10:27.717Z,10.48
2022-10-14T13:12:54.191Z,3.70
2022-10-14T13:15:34.156Z,4.05
2022-10-14T13:18:20.365Z,4.20
2022-10-14T13:20:46.616Z,3.72
2022-10-14T13:23:16.010Z,6.82
2022-10-14T13:25:42.905Z,4.22
2022-10-14T13:30:39.302Z,7.72
2022-10-14T13:33:32.504Z,6.00
2022-10-14T13:36:10.867Z,5.20
2022-10-14T13:38:38.381Z,4.28
2022-10-14T13:41:05.216Z,4.45
2022-10-14T13:43:42.855Z,5.05
2022-10-14T13:46:29.173Z,12.65
2022-10-14T13:48:57.414Z,7.88
2022-10-14T13:51:46.881Z,5.43
2022-10-14T13:54:23.606Z,4.53
2022-10-14T14:02:42.587Z,12.07
2022-10-14T14:05:14.181Z,4.93
2022-10-14T14:10:29.007Z,5.75
2022-10-14T14:12:55.403Z,6.43
2022-10-14T14:15:23.828Z,8.40
2022-10-14T14:17:50.150Z,5.38
2022-10-14T14:20:19.163Z,6.53
2022-10-14T14:22:45.426Z,5.60
2022-10-14T14:25:33.596Z,5.00
2022-10-14T14:28:03.458Z,3.90
2022-10-14T14:30:31.259Z,3.70
2022-10-14T14:33:01.497Z,3.05
2022-10-14T14:35:28.300Z,3.97
2022-10-14T14:37:56.405Z,4.32
2022-10-14T14:40:27.544Z,3.03
2022-10-14T14:42:55.352Z,4.30
2022-10-14T14:45:25.919Z,5.95
2022-10-14T14:47:53.261Z,3.47
2022-10-14T14:50:31.278Z,3.30
2022-10-14T14:53:01.688Z,3.22
2022-10-14T14:55:36.973Z,3.35
2022-10-14T14:58:04.224Z,3.45
2022-10-14T15:00:33.472Z,3.60
2022-10-14T15:03:01.290Z,3.50
2022-10-14T15:05:27.779Z,3.70
2022-10-14T15:07:54.073Z,3.50
2022-10-14T15:10:22.352Z,3.60
2022-10-14T15:12:53.879Z,3.83
2022-10-14T15:15:26.221Z,3.55
2022-10-14T15:18:06.671Z,4.00
2022-10-14T15:20:34.867Z,4.38
2022-10-14T15:23:01.179Z,3.90
2022-10-14T15:25:30.069Z,3.63
2022-10-14T15:27:57.353Z,4.35
2022-10-14T15:30:23.834Z,5.38
2022-10-14T15:32:51.162Z,7.05
2022-10-14T15:35:18.764Z,5.10
2022-10-14T15:37:45.149Z,5.03
2022-10-14T15:40:15.791Z,4.80
2022-10-14T15:42:42.061Z,5.18
2022-10-14T15:45:08.894Z,4.53
2022-10-14T15:47:35.588Z,4.75
2022-10-14T15:50:05.856Z,5.97
2022-10-14T15:52:32.670Z,5.75
2022-10-14T15:54:59.413Z,6.30
2022-10-14T15:57:26.023Z,6.40
2022-10-14T15:59:53.207Z,7.93
2022-10-14T16:05:07.286Z,17.70
2022-10-14T16:07:32.718Z,15.80
2022-10-14T16:09:58.992Z,11.82
2022-10-14T16:12:25.355Z,9.10
2022-10-14T16:14:51.658Z,9.15
2022-10-14T16:17:18.821Z,8.27
2022-10-14T16:19:45.338Z,7.57
2022-10-14T16:22:11.585Z,6.05
2022-10-14T16:24:38.043Z,8.93
2022-10-14T16:27:04.315Z,6.00
2022-10-14T16:29:30.537Z,9.93
2022-10-14T16:31:56.823Z,5.93
2022-10-14T16:34:23.757Z,5.70
2022-10-14T16:39:16.736Z,6.13
2022-10-14T16:41:43.060Z,6.70
2022-10-14T16:44:24.431Z,6.35
2022-10-14T16:47:10.523Z,5.75
2022-10-14T16:49:39.081Z,5.32
2022-10-14T16:52:05.977Z,4.57
2022-10-14T16:54:32.272Z,4.13
2022-10-14T16:56:58.975Z,4.35
2022-10-14T16:59:25.423Z,4.47
2022-10-14T17:01:52.094Z,4.15
2022-10-14T17:04:21.363Z,3.78
2022-10-14T17:06:48.107Z,4.95
2022-10-14T17:09:15.041Z,7.75
2022-10-14T17:14:09.439Z,8.00
2022-10-14T17:16:35.712Z,5.97
2022-10-14T17:19:01.978Z,4.38
2022-10-14T17:21:29.351Z,4.50
2022-10-14T17:23:58.250Z,4.63
2022-10-14T17:26:24.595Z,4.10
2022-10-14T17:28:50.891Z,5.20
2022-10-14T17:31:19.860Z,5.05
2022-10-14T17:33:46.735Z,4.88
2022-10-14T17:36:23.732Z,6.30
2022-10-14T17:38:50.861Z,6.97
2022-10-14T17:41:18.196Z,4.43
2022-10-14T17:43:49.433Z,3.53
2022-10-14T17:46:17.261Z,8.98
2022-10-14T17:48:43.584Z,7.85
2022-10-14T17:51:10.545Z,4.43
2022-10-14T17:56:04.432Z,33.47
2022-10-14T17:58:31.099Z,12.60
2022-10-14T18:01:07.755Z,4.63
2022-10-14T18:03:34.496Z,3.87
2022-10-14T18:06:19.040Z,4.15
2022-10-14T18:08:46.246Z,3.90
2022-10-14T18:11:13.050Z,2.90
2022-10-14T18:16:13.090Z,3.42
2022-10-14T18:18:39.683Z,3.58
2022-10-14T18:21:06.054Z,3.45
2022-10-14T18:23:33.219Z,3.13
2022-10-14T18:26:06.294Z,2.85
2022-10-14T18:28:35.528Z,2.85
2022-10-14T18:31:09.446Z,4.47
2022-10-14T18:33:36.521Z,2.17
2022-10-14T18:36:03.766Z,2.13
2022-10-14T18:38:30.015Z,1.83
2022-10-14T18:40:57.216Z,2.92
2022-10-14T18:43:23.672Z,2.42
2022-10-14T18:45:51.751Z,2.47
2022-10-14T18:48:21.873Z,2.72
2022-10-14T18:50:57.258Z,2.10
2022-10-14T18:53:24.167Z,1.48
2022-10-14T18:58:16.964Z,1.40
2022-10-14T19:00:43.219Z,1.35
2022-10-14T19:03:09.731Z,2.20
2022-10-14T19:05:36.169Z,1.70
2022-10-14T19:08:05.990Z,2.00
2022-10-14T19:10:32.451Z,2.33
2022-10-14T19:12:58.765Z,3.38
2022-10-14T19:15:26.390Z,2.95
2022-10-14T19:17:54.630Z,2.13
2022-10-14T19:20:21.168Z,3.00
2022-10-14T19:22:47.392Z,3.75
2022-10-14T19:25:13.744Z,2.08
2022-10-14T19:27:40.036Z,2.08
2022-10-14T19:30:06.759Z,1.65
2022-10-14T19:32:33.001Z,1.52
2022-10-14T19:35:00.936Z,2.15
2022-10-14T19:37:27.631Z,2.50
2022-10-14T19:39:53.868Z,1.67
2022-10-14T19:42:20.099Z,1.88
2022-10-14T19:44:46.349Z,2.00
2022-10-14T19:47:12.619Z,2.67
2022-10-14T19:49:38.883Z,2.03
2022-10-14T19:52:05.208Z,2.30
2022-10-14T19:54:31.474Z,1.90
2022-10-14T19:56:57.692Z,2.10
2022-10-14T19:59:24.205Z,2.50
2022-10-14T20:01:50.592Z,2.08
2022-10-14T20:04:17.105Z,1.90
2022-10-14T20:06:44.939Z,1.63
2022-10-14T20:09:11.430Z,2.17
2022-10-14T20:11:37.695Z,1.45
2022-10-14T20:14:04.036Z,1.63
2022-10-14T20:16:30.371Z,1.70
2022-10-14T20:18:56.768Z,1.50
2022-10-14T20:21:23.714Z,1.67
2022-10-14T20:26:18.363Z,1.90
2022-10-14T20:28:45.244Z,1.80
2022-10-14T20:31:16.620Z,1.80
2022-10-14T20:33:43.280Z,1.60
2022-10-14T20:36:13.726Z,1.95
2022-10-14T20:38:40.637Z,1.67
2022-10-14T20:41:08.172Z,2.20
2022-10-14T20:43:34.429Z,1.70
2022-10-14T20:46:00.882Z,1.85
2022-10-14T20:48:27.161Z,1.50
2022-10-14T20:50:53.523Z,1.40
2022-10-14T20:53:19.805Z,1.67
2022-10-14T20:55:46.060Z,1.90
2022-10-14T20:58:12.336Z,1.75
2022-10-14T21:00:38.684Z,1.38
2022-10-14T21:03:04.994Z,1.60
2022-10-14T21:05:31.302Z,1.30
2022-10-14T21:07:57.571Z,1.50
2022-10-14T21:10:24.365Z,1.60
2022-10-14T21:12:51.831Z,1.23
2022-10-14T21:15:18.075Z,2.00
2022-10-14T21:17:50.287Z,1.50
2022-10-14T21:20:16.850Z,1.52
2022-10-14T21:22:43.130Z,1.70
2022-10-14T21:25:09.514Z,1.85
2022-10-14T21:27:35.803Z,1.52
2022-10-14T21:30:02.077Z,1.42
2022-10-14T21:32:28.334Z,1.60
2022-10-14T21:34:54.616Z,1.40
2022-10-14T21:37:20.927Z,1.50
2022-10-14T21:39:47.237Z,1.23
2022-10-14T21:42:14.288Z,0.98
2022-10-14T21:44:40.552Z,1.27
2022-10-14T21:47:06.821Z,1.30
2022-10-14T21:49:33.052Z,1.27
2022-10-14T21:51:59.272Z,1.23
2022-10-14T21:54:26.055Z,1.25
2022-10-14T21:56:52.350Z,1.00
2022-10-14T21:59:19.391Z,0.95
2022-10-14T22:04:11.867Z,1.30
2022-10-14T22:06:38.200Z,1.40
2022-10-14T22:09:06.295Z,1.13
2022-10-14T22:11:34.262Z,1.27
2022-10-14T22:14:01.363Z,1.45
2022-10-14T22:16:29.092Z,1.30
2022-10-14T22:18:56.093Z,1.10
2022-10-14T22:21:23.583Z,1.23
2022-10-14T22:23:50.283Z,1.42
2022-10-14T22:26:18.193Z,1.23
2022-10-14T22:28:44.565Z,1.00
2022-10-14T22:31:12.427Z,1.00
2022-10-14T22:33:39.289Z,4.85
2022-10-14T22:38:31.937Z,1.55
2022-10-14T22:41:00.432Z,0.90
2022-10-14T22:43:26.646Z,1.23
2022-10-14T22:46:12.358Z,1.00
2022-10-14T22:48:38.655Z,1.30
2022-10-14T22:51:06.301Z,1.08
2022-10-14T22:53:32.976Z,7.75
2022-10-14T22:55:59.361Z,9.65
2022-10-14T22:58:25.833Z,1.60
2022-10-14T23:00:52.077Z,0.98
2022-10-14T23:03:18.575Z,0.93
2022-10-14T23:05:44.935Z,1.20
2022-10-14T23:08:12.249Z,0.98
2022-10-14T23:10:38.688Z,1.33
2022-10-14T23:13:05.394Z,1.17
2022-10-14T23:15:31.747Z,1.10
2022-10-14T23:17:58.099Z,0.88
2022-10-14T23:20:24.436Z,1.17
2022-10-14T23:22:50.662Z,1.00
2022-10-14T23:25:17.184Z,1.00
2022-10-14T23:27:43.833Z,1.10
2022-10-14T23:30:10.289Z,0.90
2022-10-14T23:32:36.570Z,1.20
2022-10-14T23:35:03.044Z,4.60
2022-10-14T23:37:29.325Z,16.88
2022-10-14T23:39:55.673Z,1.40
2022-10-14T23:42:21.946Z,1.02
2022-10-14T23:44:48.221Z,1.10
2022-10-14T23:47:14.502Z,1.15
2022-10-14T23:49:40.837Z,3.67
2022-10-14T23:52:07.067Z,1.30
2022-10-14T23:54:33.285Z,0.90
2022-10-14T23:56:59.529Z,1.08
2022-10-14T23:59:25.837Z,1.17
